Time;durP1;ratioP1;P1;durP2;ratioP2;P2;SDS_P1;SDS_P2;PMS_P1;PMS_P2;Temp;Humidity;BMP_temperature;BMP_pressure;BME280_temperature;BME280_humidity;BME280_pressure;Samples;Min_cycle;Max_cycle;Signal;HPM_P1;HPM_P2
2024/02/23 00:03:47;;;;;;;1.58;0.25;;;;;;;9.30;78.68;97763.00;10253813;28;20510;-63
2024/02/23 00:08:48;;;;;;;0.70;0.20;;;;;;;9.26;82.44;97774.94;10249239;28;20162;-64
2024/02/23 00:13:50;;;;;;;2.38;0.22;;;;;;;9.13;82.77;97776.38;10232938;28;20193;-64
2024/02/23 00:18:51;;;;;;;1.45;0.10;;;;;;;9.14;81.00;97783.34;10232118;28;20117;-63
2024/02/23 00:23:53;;;;;;;0.93;0.20;;;;;;;9.06;79.85;97786.00;10250882;28;20054;-63
2024/02/23 00:28:55;;;;;;;0.32;0.10;;;;;;;8.91;77.95;97783.28;10236922;28;20047;-64
2024/02/23 00:33:56;;;;;;;2.15;0.10;;;;;;;8.96;77.57;97819.91;10234634;28;20058;-62
2024/02/23 00:38:58;;;;;;;1.08;0.30;;;;;;;9.01;76.74;97849.41;10228795;28;20076;-62
2024/02/23 00:43:59;;;;;;;1.50;0.35;;;;;;;8.88;75.61;97831.38;10248887;28;20050;-62
2024/02/23 00:49:02;;;;;;;1.38;0.30;;;;;;;8.90;74.67;97844.47;10236157;28;20085;-63
2024/02/23 00:54:05;;;;;;;1.63;0.40;;;;;;;8.76;72.35;97852.13;10233510;28;20135;-63
2024/02/23 00:59:07;;;;;;;1.50;0.30;;;;;;;8.75;73.16;97861.13;10234725;28;20143;-63
2024/02/23 01:04:08;;;;;;;2.20;0.47;;;;;;;8.63;73.03;97873.06;10241744;28;20081;-62
2024/02/23 01:09:10;;;;;;;1.05;0.30;;;;;;;8.40;74.39;97863.13;10243972;28;20101;-63
2024/02/23 01:14:12;;;;;;;1.67;0.30;;;;;;;8.57;74.27;97871.09;10252978;28;20054;-62
2024/02/23 01:19:15;;;;;;;0.75;0.20;;;;;;;8.53;74.76;97894.47;10247875;28;22841;-63
2024/02/23 01:24:17;;;;;;;3.03;0.43;;;;;;;8.57;74.62;97913.50;10254335;28;20150;-61
2024/02/23 01:29:19;;;;;;;3.83;0.30;;;;;;;8.62;75.75;97919.97;10256479;28;20109;-62
2024/02/23 01:34:22;;;;;;;1.40;0.30;;;;;;;8.52;76.38;97926.47;10254352;28;20061;-62
2024/02/23 01:39:24;;;;;;;1.50;0.10;;;;;;;8.53;76.54;97949.31;10240062;28;20058;-62
2024/02/23 01:44:25;;;;;;;1.63;0.32;;;;;;;8.52;76.44;97945.03;10252142;28;20480;-63
2024/02/23 01:49:31;;;;;;;1.80;0.40;;;;;;;8.63;76.36;97961.41;10257424;28;20065;-63
2024/02/23 01:54:34;;;;;;;1.95;0.20;;;;;;;8.48;76.81;97965.72;10254022;28;20138;-63
2024/02/23 01:59:37;;;;;;;1.02;0.45;;;;;;;8.35;74.84;97995.34;10252565;28;20147;-63
2024/02/23 02:04:39;;;;;;;0.85;0.10;;;;;;;8.29;75.86;98015.38;10249502;28;20059;-63
2024/02/23 02:09:41;;;;;;;0.77;0.40;;;;;;;8.13;76.15;97991.50;10254000;28;20393;-62
2024/02/23 02:14:44;;;;;;;1.80;0.10;;;;;;;8.20;75.23;98028.81;10254023;28;20054;-62
2024/02/23 02:19:48;;;;;;;2.50;0.20;;;;;;;8.15;72.97;98042.53;10252927;28;20572;-63
2024/02/23 02:24:49;;;;;;;3.35;0.47;;;;;;;8.00;72.62;98052.09;10248755;28;20520;-63
2024/02/23 02:29:51;;;;;;;2.15;1.00;;;;;;;7.96;72.50;98054.25;10239554;28;20142;-61
2024/02/23 02:34:52;;;;;;;1.85;0.30;;;;;;;7.80;71.12;98049.72;10228178;28;20058;-63
2024/02/23 02:39:54;;;;;;;1.52;0.30;;;;;;;7.79;71.27;98064.78;10252261;28;20536;-64
2024/02/23 02:44:55;;;;;;;2.25;0.15;;;;;;;7.77;70.73;98045.53;10254084;28;20051;-63
2024/02/23 02:49:57;;;;;;;0.50;0.10;;;;;;;7.79;71.64;98059.47;10243502;28;20189;-62
2024/02/23 02:54:58;;;;;;;1.17;0.20;;;;;;;7.76;70.22;98070.41;10251140;28;20063;-63
2024/02/23 03:00:00;;;;;;;1.67;0.10;;;;;;;7.84;71.64;98077.53;10250863;28;20066;-62
2024/02/23 03:05:02;;;;;;;4.20;0.35;;;;;;;7.87;71.22;98076.41;10248839;28;20065;-63
2024/02/23 03:10:04;;;;;;;1.00;0.28;;;;;;;7.91;71.81;98073.28;10238549;28;20046;-63
2024/02/23 03:15:06;;;;;;;1.70;0.30;;;;;;;7.89;72.34;98090.31;10246888;28;20124;-64
2024/02/23 03:20:10;;;;;;;1.33;0.10;;;;;;;7.82;72.95;98091.91;10251107;28;20670;-62
2024/02/23 03:25:12;;;;;;;0.63;0.20;;;;;;;7.57;73.58;98065.34;10248708;28;20078;-63
2024/02/23 03:30:14;;;;;;;1.05;0.20;;;;;;;7.71;73.25;98099.16;10238959;28;20054;-63
2024/02/23 03:35:15;;;;;;;2.00;0.20;;;;;;;7.70;73.42;98105.47;10247131;28;20054;-63
2024/02/23 03:40:19;;;;;;;2.58;0.30;;;;;;;7.67;72.65;98110.22;10247908;28;20043;-62
2024/02/23 03:45:20;;;;;;;2.30;0.25;;;;;;;7.66;73.06;98116.53;10231405;28;20568;-64
2024/02/23 03:50:21;;;;;;;2.97;0.20;;;;;;;7.41;74.08;98106.59;10239540;28;20283;-63
2024/02/23 03:55:24;;;;;;;1.75;0.40;;;;;;;7.52;74.33;98120.56;10251148;28;20053;-62
2024/02/23 04:00:26;;;;;;;1.27;0.20;;;;;;;7.40;75.47;98122.63;10232295;28;20078;-63
2024/02/23 04:05:27;;;;;;;1.40;0.10;;;;;;;7.34;75.46;98121.47;10222609;28;20365;-64
2024/02/23 04:10:29;;;;;;;1.38;0.50;;;;;;;7.40;76.57;98118.19;10250623;28;20735;-63
2024/02/23 04:15:30;;;;;;;2.25;0.30;;;;;;;7.48;76.64;98125.34;10248756;28;20481;-63
2024/02/23 04:20:32;;;;;;;1.23;0.30;;;;;;;7.32;76.15;98128.72;10233255;28;20053;-63
2024/02/23 04:25:34;;;;;;;2.42;0.47;;;;;;;7.31;76.91;98137.66;10248794;28;20050;-64
2024/02/23 04:30:36;;;;;;;4.10;0.40;;;;;;;7.18;77.14;98114.22;10228448;28;20062;-63
2024/02/23 04:35:37;;;;;;;1.13;0.60;;;;;;;7.23;77.18;98121.69;10244963;28;20062;-63
2024/02/23 04:40:39;;;;;;;2.80;0.93;;;;;;;7.27;77.18;98128.34;10245705;28;20046;-63
2024/02/23 04:45:40;;;;;;;2.28;0.40;;;;;;;7.15;78.31;98126.94;10256659;28;20057;-63
2024/02/23 04:50:42;;;;;;;3.22;0.32;;;;;;;7.04;78.37;98128.00;10254036;28;20085;-63
2024/02/23 04:55:44;;;;;;;2.63;0.73;;;;;;;6.81;78.92;98128.47;10244201;28;20137;-63
2024/02/23 05:00:46;;;;;;;1.98;0.93;;;;;;;6.82;79.47;98119.56;10257205;28;20046;-62
2024/02/23 05:05:49;;;;;;;2.33;0.40;;;;;;;6.68;79.37;98115.63;10255783;28;20658;-63
2024/02/23 05:10:51;;;;;;;2.63;0.50;;;;;;;6.46;80.35;98124.84;10241790;28;20070;-63
2024/02/23 05:15:55;;;;;;;1.92;0.55;;;;;;;6.50;80.94;98125.34;10255422;28;20196;-63
2024/02/23 05:20:57;;;;;;;1.63;0.75;;;;;;;6.46;81.30;98119.53;10248044;28;20137;-63
2024/02/23 05:25:59;;;;;;;2.25;0.55;;;;;;;6.42;80.81;98133.22;10246589;28;20593;-63
2024/02/23 05:31:03;;;;;;;3.70;1.55;;;;;;;6.49;81.25;98139.56;10248054;28;20076;-63
2024/02/23 05:36:05;;;;;;;2.97;0.50;;;;;;;6.43;80.51;98134.88;10255099;28;20145;-64
2024/02/23 05:41:12;;;;;;;2.38;0.60;;;;;;;6.42;81.12;98139.31;10220571;28;20578;-63
2024/02/23 05:46:13;;;;;;;1.27;0.73;;;;;;;6.57;80.86;98142.28;10253158;28;22178;-63
2024/02/23 05:51:15;;;;;;;2.50;0.60;;;;;;;6.69;79.91;98143.72;10239974;28;20047;-62
2024/02/23 05:56:16;;;;;;;2.33;0.65;;;;;;;6.67;80.16;98132.47;10245781;28;21229;-64
2024/02/23 06:01:18;;;;;;;4.22;0.93;;;;;;;6.76;79.70;98135.22;10251476;28;20528;-64
2024/02/23 06:06:20;;;;;;;3.92;0.60;;;;;;;6.76;79.78;98153.72;10227770;28;20058;-63
2024/02/23 06:11:22;;;;;;;1.90;0.80;;;;;;;6.59;79.88;98156.19;10255987;28;20054;-64
2024/02/23 06:16:23;;;;;;;1.90;0.65;;;;;;;6.49;81.44;98169.47;10252533;28;20078;-63
2024/02/23 06:21:25;;;;;;;3.60;0.60;;;;;;;6.62;81.26;98182.34;10253201;28;20058;-63
2024/02/23 06:26:27;;;;;;;1.13;0.30;;;;;;;6.60;82.99;98186.94;10248938;28;20074;-64
2024/02/23 06:31:29;;;;;;;1.92;0.60;;;;;;;6.56;82.99;98188.22;10244056;28;20425;-63
2024/02/23 06:36:31;;;;;;;5.82;0.73;;;;;;;6.71;83.37;98209.66;10237406;28;20050;-65
2024/02/23 06:41:32;;;;;;;1.55;0.52;;;;;;;6.76;82.21;98217.19;10251772;28;20054;-63
2024/02/23 06:46:34;;;;;;;4.68;1.33;;;;;;;6.85;82.71;98229.50;10223899;28;20367;-63
2024/02/23 06:51:35;;;;;;;1.95;0.50;;;;;;;6.79;82.60;98228.28;10245721;28;20054;-64
2024/02/23 06:56:37;;;;;;;3.70;0.80;;;;;;;6.69;82.22;98227.50;10224568;28;20055;-64
2024/02/23 07:01:48;;;;;;;2.60;0.50;;;;;;;6.66;82.27;98219.88;10248714;28;20683;-63
2024/02/23 07:06:49;;;;;;;5.05;0.60;;;;;;;6.70;82.18;98237.13;10230799;28;20500;-63
2024/02/23 07:11:51;;;;;;;4.20;1.00;;;;;;;6.75;81.49;98236.66;10247316;28;20066;-64
2024/02/23 07:16:54;;;;;;;2.63;0.52;;;;;;;6.80;80.36;98242.34;10228504;28;20137;-66
2024/02/23 07:21:56;;;;;;;4.38;1.15;;;;;;;6.86;79.33;98247.03;10218402;28;20061;-65
2024/02/23 07:26:58;;;;;;;2.15;0.43;;;;;;;6.82;78.90;98235.91;10237417;28;20058;-65
2024/02/23 07:32:06;;;;;;;2.63;0.65;;;;;;;6.82;78.90;98222.69;10388021;28;20413;-65
2024/02/23 07:37:09;;;;;;;4.47;0.65;;;;;;;6.96;78.83;98225.81;10362176;28;20054;-65
2024/02/23 07:42:10;;;;;;;2.25;0.80;;;;;;;7.05;77.28;98231.00;10391665;28;20080;-64
2024/02/23 07:47:12;;;;;;;3.03;0.80;;;;;;;7.20;76.65;98233.16;10409827;28;20060;-64
2024/02/23 07:52:14;;;;;;;0.70;0.50;;;;;;;7.36;75.95;98251.81;10427206;28;20728;-63
2024/02/23 07:57:16;;;;;;;6.78;0.73;;;;;;;7.18;74.66;98248.34;10422239;28;20679;-62
2024/02/23 08:02:18;;;;;;;3.10;0.50;;;;;;;7.29;74.23;98258.69;10428879;28;20712;-65
2024/02/23 08:07:20;;;;;;;3.05;0.52;;;;;;;7.46;72.50;98280.03;10428775;28;20060;-63
2024/02/23 08:12:21;;;;;;;2.20;0.57;;;;;;;7.31;72.05;98291.16;10427752;28;20063;-65
2024/02/23 08:17:23;;;;;;;4.20;0.60;;;;;;;7.37;71.84;98273.81;10428047;28;20118;-63
2024/02/23 08:22:25;;;;;;;4.82;0.85;;;;;;;7.46;72.29;98280.03;10431493;28;20190;-62
2024/02/23 08:27:27;;;;;;;6.72;0.70;;;;;;;7.47;70.95;98269.28;10425511;28;20080;-64
2024/02/23 08:32:30;;;;;;;1.58;0.43;;;;;;;7.60;70.75;98255.66;10407972;28;20124;-63
2024/02/23 08:37:31;;;;;;;6.90;0.60;;;;;;;7.43;69.80;98250.25;10432303;28;20247;-64
2024/02/23 08:42:33;;;;;;;3.15;0.80;;;;;;;7.66;70.98;98281.53;10402062;28;20784;-64
2024/02/23 08:47:35;;;;;;;1.83;0.45;;;;;;;7.70;71.20;98296.13;10404090;28;20098;-64
2024/02/23 08:52:37;;;;;;;5.00;1.00;;;;;;;7.74;71.59;98302.78;10389881;28;20052;-63
2024/02/23 08:57:41;;;;;;;2.78;0.93;;;;;;;7.69;71.60;98297.13;10405645;28;20297;-64
2024/02/23 09:02:44;;;;;;;4.13;1.30;;;;;;;7.71;71.66;98295.13;10406054;28;20061;-65
2024/02/23 09:07:46;;;;;;;3.03;0.55;;;;;;;7.64;71.08;98294.09;10397081;28;23586;-63
2024/02/23 09:12:48;;;;;;;4.85;1.05;;;;;;;7.43;71.94;98259.97;10403928;28;20071;-62
2024/02/23 09:17:49;;;;;;;2.80;0.65;;;;;;;7.64;73.03;98294.09;10398925;28;20855;-62
2024/02/23 09:22:51;;;;;;;2.10;0.85;;;;;;;7.59;72.43;98305.13;10390982;28;20183;-64
2024/02/23 09:27:56;;;;;;;2.25;0.60;;;;;;;7.50;72.42;98291.97;10408941;28;20055;-63
2024/02/23 09:32:58;;;;;;;3.88;0.60;;;;;;;7.58;73.75;98289.38;10400434;28;20064;-63
2024/02/23 09:38:01;;;;;;;5.32;0.95;;;;;;;7.70;73.25;98272.31;10395834;28;20502;-65
2024/02/23 09:43:06;;;;;;;5.78;0.90;;;;;;;7.66;72.67;98265.63;10400239;28;20054;-66
2024/02/23 09:48:10;;;;;;;4.38;0.70;;;;;;;7.63;72.73;98281.84;10405293;28;20049;-64
2024/02/23 09:53:13;;;;;;;4.10;0.77;;;;;;;7.85;72.07;98263.78;10394732;28;20543;-65
2024/02/23 09:58:17;;;;;;;4.43;1.05;;;;;;;8.55;70.05;98276.16;10396014;28;20048;-63
2024/02/23 10:03:20;;;;;;;3.30;0.75;;;;;;;8.79;67.75;98272.75;10390593;28;20550;-65
2024/02/23 10:08:22;;;;;;;2.03;0.68;;;;;;;8.80;67.41;98264.66;10384778;28;21320;-65
2024/02/23 10:13:24;;;;;;;5.57;0.63;;;;;;;8.65;67.53;98271.56;10398212;28;20140;-66
2024/02/23 10:18:26;;;;;;;3.00;0.77;;;;;;;8.82;67.42;98275.09;10397933;28;20057;-64
2024/02/23 10:23:28;;;;;;;2.70;0.65;;;;;;;8.95;66.20;98277.31;10402019;28;20080;-64
2024/02/23 10:28:31;;;;;;;4.00;0.70;;;;;;;9.01;64.60;98268.69;10398122;28;20143;-62
2024/02/23 10:33:32;;;;;;;4.63;0.40;;;;;;;8.70;64.13;98258.63;10401726;28;20046;-65
2024/02/23 10:38:37;;;;;;;3.67;1.13;;;;;;;8.85;65.17;98264.16;10397953;28;20093;-64
2024/02/23 10:43:46;;;;;;;;;;;;;;;8.73;66.04;98266.28;10398978;28;20053;-66
2024/02/23 10:48:49;;;;;;;4.43;0.80;;;;;;;8.77;66.99;98274.75;10402260;28;19921;-65
2024/02/23 10:53:52;;;;;;;3.10;0.77;;;;;;;8.76;67.21;98260.63;10395461;28;20057;-63
2024/02/23 10:58:54;;;;;;;3.95;0.70;;;;;;;8.76;67.32;98251.88;10393158;28;20398;-63
2024/02/23 11:03:56;;;;;;;3.13;1.35;;;;;;;8.95;67.74;98261.38;10401281;28;20053;-62
2024/02/23 11:09:08;;;;;;;5.75;1.27;;;;;;;9.33;64.73;98233.38;10394316;28;20152;-63
2024/02/23 11:14:10;;;;;;;5.25;0.85;;;;;;;9.29;64.81;98257.78;10397409;28;20075;-64
2024/02/23 11:19:11;;;;;;;4.95;1.05;;;;;;;9.11;65.56;98240.19;10397753;28;20045;-65
2024/02/23 11:24:17;;;;;;;3.80;0.90;;;;;;;9.02;66.48;98243.78;10404264;28;20470;-64
2024/02/23 11:29:21;;;;;;;3.87;0.90;;;;;;;9.07;66.21;98249.47;10392224;28;20053;-63
2024/02/23 11:34:26;;;;;;;3.50;0.73;;;;;;;8.95;67.17;98261.38;10390644;28;20176;-65
2024/02/23 11:39:29;;;;;;;3.60;0.75;;;;;;;8.94;67.79;98259.72;10390401;28;20120;-64
2024/02/23 11:44:30;;;;;;;3.95;1.02;;;;;;;9.11;68.33;98247.31;10389441;28;20060;-64
2024/02/23 11:49:32;;;;;;;5.75;0.85;;;;;;;9.16;69.03;98256.44;10391348;28;20140;-63
2024/02/23 11:54:34;;;;;;;4.72;1.35;;;;;;;8.90;71.71;98264.50;10397188;28;20956;-63
2024/02/23 11:59:35;;;;;;;2.17;0.82;;;;;;;9.09;73.33;98263.38;10392806;28;20075;-63
2024/02/23 12:04:37;;;;;;;1.83;0.85;;;;;;;12.03;63.88;98256.34;10395351;28;20146;-63
2024/02/23 12:09:41;;;;;;;5.45;0.82;;;;;;;11.54;64.70;98267.41;10380001;28;20184;-65
2024/02/23 12:14:44;;;;;;;2.70;0.65;;;;;;;10.45;67.82;98259.38;10397071;28;20807;-64
2024/02/23 12:19:45;;;;;;;2.20;0.80;;;;;;;9.97;69.92;98259.28;10400087;28;22631;-63
2024/02/23 12:24:46;;;;;;;5.38;0.98;;;;;;;9.80;70.04;98247.81;10401148;28;20060;-63
2024/02/23 12:29:55;;;;;;;3.58;0.75;;;;;;;9.72;71.69;98263.78;10405966;28;20799;-62
2024/02/23 12:34:56;;;;;;;3.22;1.00;;;;;;;9.67;70.35;98266.13;10402993;28;20045;-65
2024/02/23 12:39:58;;;;;;;4.90;0.95;;;;;;;9.55;71.38;98258.47;10401331;28;20188;-65
2024/02/23 12:44:59;;;;;;;3.25;1.20;;;;;;;9.51;71.78;98262.44;10402534;28;20597;-63
2024/02/23 12:50:05;;;;;;;2.33;0.90;;;;;;;9.48;70.06;98243.38;10397372;28;20047;-62
2024/02/23 12:55:08;;;;;;;5.40;0.90;;;;;;;9.45;72.08;98247.16;10401806;28;20056;-62
2024/02/23 13:00:11;;;;;;;4.95;1.00;;;;;;;9.55;74.66;98249.69;10397806;28;20773;-63
2024/02/23 13:05:12;;;;;;;4.88;0.98;;;;;;;9.63;73.90;98235.56;10400295;28;20105;-65
2024/02/23 13:10:14;;;;;;;3.30;0.70;;;;;;;9.59;74.81;98232.41;10406246;28;20056;-65
2024/02/23 13:15:16;;;;;;;5.97;1.00;;;;;;;9.47;73.47;98245.19;10375576;28;20135;-64
2024/02/23 13:20:22;;;;;;;5.65;1.15;;;;;;;9.30;74.58;98249.66;10399399;28;20155;-66
2024/02/23 13:25:24;;;;;;;4.95;1.13;;;;;;;9.17;76.21;98241.34;10380131;28;21265;-66
2024/02/23 13:30:26;;;;;;;6.22;1.20;;;;;;;9.09;76.42;98236.84;10399979;28;20371;-66
2024/02/23 13:35:27;;;;;;;5.45;1.25;;;;;;;9.07;76.53;98233.53;10398476;28;20124;-65
2024/02/23 13:40:30;;;;;;;2.75;1.05;;;;;;;9.17;76.66;98228.91;10400598;28;20044;-65
2024/02/23 13:45:32;;;;;;;5.15;1.08;;;;;;;9.19;74.97;98232.22;10405891;28;20613;-63
2024/02/23 13:50:34;;;;;;;4.50;1.00;;;;;;;11.63;69.67;98237.03;10399945;28;20132;-65
2024/02/23 13:55:46;;;;;;;2.92;1.02;;;;;;;15.07;52.83;98233.84;10394922;28;20049;-64
2024/02/23 14:00:48;;;;;;;2.47;0.70;;;;;;;12.37;60.06;98230.19;10405819;28;20056;-64
2024/02/23 14:05:50;;;;;;;5.97;1.10;;;;;;;11.11;64.32;98227.94;10401280;28;20057;-68
2024/02/23 14:10:51;;;;;;;5.10;1.38;;;;;;;10.45;66.07;98216.81;10387428;28;20052;-65
2024/02/23 14:15:53;;;;;;;5.88;1.38;;;;;;;10.25;67.68;98219.84;10390479;28;20040;-65
2024/02/23 14:20:55;;;;;;;3.65;0.93;;;;;;;10.35;66.70;98232.13;10395427;28;20495;-65
2024/02/23 14:25:57;;;;;;;3.67;0.95;;;;;;;10.55;68.07;98217.44;10396526;28;20049;-67
2024/02/23 14:30:59;;;;;;;2.15;1.33;;;;;;;10.47;65.71;98214.78;10399383;28;20056;-65
2024/02/23 14:36:02;;;;;;;6.47;1.35;;;;;;;10.39;65.72;98201.53;10399257;28;20152;-64
2024/02/23 14:41:04;;;;;;;3.58;0.98;;;;;;;10.31;64.55;98193.56;10380537;28;20663;-64
2024/02/23 14:46:09;;;;;;;4.38;1.00;;;;;;;10.21;63.47;98189.28;10414431;28;20056;-65
2024/02/23 14:51:10;;;;;;;3.90;0.68;;;;;;;10.30;62.10;98202.53;10401032;28;20132;-65
2024/02/23 14:56:12;;;;;;;2.55;0.70;;;;;;;10.23;61.87;98197.88;10392008;28;20052;-65
2024/02/23 15:01:14;;;;;;;3.60;1.25;;;;;;;10.05;61.63;98205.28;10408047;28;20812;-64
2024/02/23 15:06:16;;;;;;;4.32;1.67;;;;;;;9.96;61.38;98190.34;10400012;28;20149;-66
2024/02/23 15:11:18;;;;;;;2.35;0.88;;;;;;;10.85;58.94;98185.66;10398122;28;20056;-66
2024/02/23 15:16:20;;;;;;;2.40;0.50;;;;;;;13.89;50.15;98194.56;10394661;28;20064;-67
2024/02/23 15:21:21;;;;;;;1.92;0.40;;;;;;;11.88;55.19;98169.34;10398425;28;20143;-66
2024/02/23 15:26:22;;;;;;;3.70;0.70;;;;;;;11.05;59.67;98153.25;10397909;28;20815;-65
2024/02/23 15:31:24;;;;;;;3.53;0.70;;;;;;;10.52;61.57;98179.69;10398865;28;20057;-65
2024/02/23 15:36:25;;;;;;;2.20;0.55;;;;;;;10.14;63.50;98172.34;10393716;28;20061;-64
2024/02/23 15:41:27;;;;;;;3.75;0.90;;;;;;;10.10;64.74;98186.97;10403027;28;20045;-65
2024/02/23 15:46:30;;;;;;;1.80;0.60;;;;;;;10.02;64.85;98189.66;10401181;28;20048;-65
2024/02/23 15:51:37;;;;;;;2.97;0.90;;;;;;;9.82;64.21;98189.22;10392402;28;20040;-65
2024/02/23 15:56:52;;;;;;;1.52;0.60;;;;;;;9.80;65.66;98189.38;10397532;28;20470;-65
2024/02/23 16:01:56;;;;;;;2.53;0.60;;;;;;;9.59;65.34;98181.09;10395634;28;20144;-67
2024/02/23 16:06:57;;;;;;;1.65;0.70;;;;;;;9.63;66.10;98195.72;10407148;28;20061;-66
2024/02/23 16:11:59;;;;;;;4.55;0.75;;;;;;;9.51;66.63;98192.56;10406478;28;20059;-64
2024/02/23 16:17:02;;;;;;;2.35;0.60;;;;;;;9.42;67.45;98194.41;10397546;28;20052;-62
2024/02/23 16:22:04;;;;;;;3.85;2.15;;;;;;;9.28;66.93;98187.13;10396384;28;20072;-63
2024/02/23 16:27:09;;;;;;;3.88;0.93;;;;;;;9.27;67.62;98185.44;10391284;28;20060;-61
2024/02/23 16:32:12;;;;;;;32.22;29.75;;;;;;;9.30;67.12;98196.53;10405599;28;20142;-61
2024/02/23 16:37:18;;;;;;;8.02;5.75;;;;;;;9.17;67.43;98212.97;10408164;28;20141;-62
2024/02/23 16:42:19;;;;;;;5.35;4.28;;;;;;;9.11;67.69;98200.38;10404933;28;20178;-62
2024/02/23 16:47:21;;;;;;;4.75;2.63;;;;;;;9.15;67.97;98204.34;10405194;28;22061;-62
2024/02/23 16:52:22;;;;;;;4.25;1.40;;;;;;;9.13;68.06;98206.34;10400024;28;20415;-62
2024/02/23 16:57:24;;;;;;;2.05;1.27;;;;;;;9.03;67.78;98200.34;10407916;28;20063;-62
2024/02/23 17:02:25;;;;;;;3.65;2.30;;;;;;;9.05;68.42;98190.38;10400264;28;20046;-61
2024/02/23 17:07:28;;;;;;;2.15;0.68;;;;;;;8.95;68.24;98174.63;10396724;28;20523;-62
2024/02/23 17:12:29;;;;;;;3.03;1.48;;;;;;;9.00;68.32;98206.81;10400257;28;20156;-63
2024/02/23 17:17:31;;;;;;;4.85;2.10;;;;;;;8.95;67.72;98192.38;10400428;28;20060;-64
2024/02/23 17:22:36;;;;;;;5.75;2.03;;;;;;;8.81;68.99;98170.81;10400460;28;20052;-61
2024/02/23 17:27:38;;;;;;;3.53;0.95;;;;;;;8.89;68.15;98182.41;10397857;28;20052;-62
2024/02/23 17:32:39;;;;;;;2.22;0.88;;;;;;;8.84;68.47;98172.28;10391501;28;20049;-63
2024/02/23 17:37:41;;;;;;;4.70;2.30;;;;;;;9.01;68.48;98205.00;10396454;28;20063;-60
2024/02/23 17:42:42;;;;;;;4.20;1.40;;;;;;;8.97;68.84;98211.63;10399733;28;20057;-63
2024/02/23 17:47:45;;;;;;;6.53;5.35;;;;;;;8.90;68.37;98213.25;10405662;28;20665;-62
2024/02/23 17:52:50;;;;;;;2.85;1.38;;;;;;;8.88;69.07;98212.59;10384842;28;21408;-63
2024/02/23 17:57:51;;;;;;;4.20;3.80;;;;;;;8.93;68.47;98220.88;10397543;28;20074;-62
2024/02/23 18:02:54;;;;;;;23.42;21.42;;;;;;;8.90;68.59;98229.19;10390133;28;20302;-62
2024/02/23 18:07:56;;;;;;;11.70;9.35;;;;;;;8.87;68.42;98232.97;10384465;28;20050;-61
2024/02/23 18:12:58;;;;;;;5.57;2.65;;;;;;;8.89;68.84;98240.78;10393972;28;20045;-62
2024/02/23 18:17:59;;;;;;;4.45;1.95;;;;;;;8.91;68.66;98230.84;10395643;28;20522;-64
2024/02/23 18:23:02;;;;;;;3.72;2.63;;;;;;;8.92;68.40;98240.47;10403786;28;20561;-62
2024/02/23 18:28:03;;;;;;;6.68;5.00;;;;;;;8.91;68.57;98246.78;10392080;28;20049;-62
2024/02/23 18:33:05;;;;;;;8.98;2.75;;;;;;;8.81;70.00;98237.13;10380775;28;20131;-64
2024/02/23 18:38:08;;;;;;;2.95;1.48;;;;;;;8.67;69.15;98227.13;10405104;28;20488;-61
2024/02/23 18:43:10;;;;;;;5.63;3.88;;;;;;;8.82;70.13;98243.25;10398481;28;20053;-62
2024/02/23 18:48:12;;;;;;;5.60;2.60;;;;;;;8.75;69.97;98243.09;10395763;28;20048;-62
2024/02/23 18:53:13;;;;;;;10.60;9.55;;;;;;;8.78;70.93;98247.22;10395017;28;20456;-64
2024/02/23 18:58:15;;;;;;;3.47;2.05;;;;;;;8.81;71.28;98250.41;10398719;28;20056;-63
2024/02/23 19:03:16;;;;;;;6.15;1.98;;;;;;;8.80;70.41;98246.06;10396627;28;20078;-62
2024/02/23 19:08:19;;;;;;;5.38;2.10;;;;;;;8.77;69.74;98248.22;10402281;28;20051;-63
2024/02/23 19:13:21;;;;;;;4.60;2.75;;;;;;;8.70;69.55;98248.03;10405487;28;20057;-61
2024/02/23 19:18:23;;;;;;;7.95;2.88;;;;;;;8.66;70.40;98230.75;10392822;28;20057;-62
2024/02/23 19:23:25;;;;;;;7.15;5.40;;;;;;;8.72;69.57;98246.06;10394223;28;20049;-63
2024/02/23 19:28:26;;;;;;;3.92;1.90;;;;;;;8.71;69.18;98241.75;10399255;28;20644;-63
2024/02/23 19:33:29;;;;;;;3.47;1.95;;;;;;;8.69;69.96;98241.06;10403726;28;20127;-64
2024/02/23 19:38:32;;;;;;;4.40;2.10;;;;;;;8.73;69.16;98239.75;10399571;28;20068;-62
2024/02/23 19:43:34;;;;;;;3.95;2.00;;;;;;;8.74;69.60;98244.06;10391790;28;20132;-62
2024/02/23 19:48:35;;;;;;;6.30;3.75;;;;;;;8.74;69.22;98237.94;10363390;28;20134;-63
2024/02/23 19:53:37;;;;;;;8.00;4.32;;;;;;;8.64;68.71;98227.44;10382015;28;20431;-62
2024/02/23 19:58:38;;;;;;;7.28;2.28;;;;;;;8.63;69.16;98215.19;10382865;28;20053;-64
2024/02/23 20:03:40;;;;;;;6.45;1.83;;;;;;;8.69;68.52;98234.94;10387219;28;20064;-63
2024/02/23 20:08:42;;;;;;;5.63;1.67;;;;;;;8.57;68.88;98218.47;10393711;28;20045;-63
2024/02/23 20:13:45;;;;;;;4.78;1.85;;;;;;;8.59;69.22;98224.47;10367341;28;20499;-65
2024/02/23 20:18:47;;;;;;;3.67;1.70;;;;;;;8.44;68.69;98211.81;10392615;28;21516;-61
2024/02/23 20:23:53;;;;;;;5.70;1.80;;;;;;;8.43;69.33;98235.78;10400177;28;20053;-64
2024/02/23 20:28:55;;;;;;;4.30;2.00;;;;;;;8.39;68.98;98235.28;10397113;28;20055;-63
2024/02/23 20:33:56;;;;;;;5.72;2.10;;;;;;;8.38;69.56;98232.81;10398283;28;20052;-63
2024/02/23 20:38:58;;;;;;;5.03;1.90;;;;;;;8.41;69.80;98237.78;10403872;28;20064;-64
2024/02/23 20:44:01;;;;;;;3.13;1.38;;;;;;;8.43;69.16;98236.63;10399379;28;20522;-64
2024/02/23 20:49:03;;;;;;;5.50;1.52;;;;;;;8.42;68.60;98234.13;10402080;28;20083;-65
2024/02/23 20:54:06;;;;;;;4.93;2.05;;;;;;;8.43;69.24;98230.50;10403599;28;20049;-62
2024/02/23 20:59:08;;;;;;;4.93;1.85;;;;;;;8.45;69.55;98224.06;10397921;28;20052;-62
2024/02/23 21:04:10;;;;;;;4.90;1.65;;;;;;;8.37;68.84;98221.34;10403966;28;20048;-65
2024/02/23 21:09:13;;;;;;;4.18;1.92;;;;;;;8.33;69.91;98225.28;10369995;28;20057;-62
2024/02/23 21:14:14;;;;;;;3.25;1.48;;;;;;;8.34;69.30;98226.97;10399194;28;20052;-61
2024/02/23 21:19:16;;;;;;;4.05;2.30;;;;;;;8.26;69.55;98232.25;10391941;28;20460;-63
2024/02/23 21:24:18;;;;;;;2.83;1.70;;;;;;;8.26;70.23;98230.41;10398283;28;20057;-63
2024/02/23 21:29:20;;;;;;;5.28;2.05;;;;;;;8.27;70.89;98231.22;10402847;28;20127;-64
2024/02/23 21:34:22;;;;;;;7.38;1.67;;;;;;;8.21;71.11;98227.41;10408397;28;20136;-64
2024/02/23 21:39:23;;;;;;;6.30;2.13;;;;;;;8.21;70.61;98237.19;10392692;28;20048;-62
2024/02/23 21:44:24;;;;;;;7.72;2.05;;;;;;;8.26;71.17;98241.03;10407678;28;20171;-62
2024/02/23 21:49:26;;;;;;;4.85;2.22;;;;;;;8.19;71.11;98232.03;10400834;28;20059;-62
2024/02/23 21:54:29;;;;;;;5.50;2.65;;;;;;;8.19;71.30;98229.38;10400160;28;20188;-64
2024/02/23 21:59:31;;;;;;;5.38;1.98;;;;;;;8.06;69.98;98224.53;10405042;28;20290;-63
2024/02/23 22:04:33;;;;;;;3.60;1.80;;;;;;;8.02;70.63;98230.31;10400385;28;20064;-63
2024/02/23 22:09:35;;;;;;;4.30;1.83;;;;;;;8.06;71.07;98239.56;10395440;28;20049;-64
2024/02/23 22:14:37;;;;;;;4.28;1.55;;;;;;;8.05;70.57;98238.75;10395928;28;20064;-60
2024/02/23 22:19:38;;;;;;;2.90;1.80;;;;;;;8.07;71.67;98235.94;10397216;28;20049;-63
2024/02/23 22:24:42;;;;;;;5.57;1.70;;;;;;;7.98;70.39;98232.41;10399077;28;20056;-63
2024/02/23 22:29:45;;;;;;;6.35;1.80;;;;;;;7.98;70.64;98232.41;10398514;28;20084;-63
2024/02/23 22:34:47;;;;;;;4.13;2.00;;;;;;;7.93;71.01;98232.88;10412017;28;20068;-61
2024/02/23 22:39:49;;;;;;;4.22;1.98;;;;;;;7.87;70.92;98224.75;10396593;28;20052;-62
2024/02/23 22:44:51;;;;;;;3.92;1.90;;;;;;;7.91;71.16;98236.66;10404231;28;20286;-62
2024/02/23 22:49:53;;;;;;;3.53;1.80;;;;;;;7.77;71.76;98219.53;10401722;28;20059;-62
2024/02/23 22:54:55;;;;;;;4.38;2.15;;;;;;;7.79;70.87;98236.94;10349045;28;20142;-63
2024/02/23 22:59:56;;;;;;;4.68;2.28;;;;;;;7.73;71.66;98234.91;10383011;28;20058;-62
2024/02/23 23:04:58;;;;;;;4.88;2.00;;;;;;;7.66;70.65;98228.56;10409380;28;20044;-62
2024/02/23 23:09:59;;;;;;;4.15;1.98;;;;;;;7.60;70.89;98237.94;10394055;28;20053;-64
2024/02/23 23:15:01;;;;;;;4.03;1.60;;;;;;;7.60;71.18;98239.78;10399828;28;20106;-63
2024/02/23 23:20:06;;;;;;;4.18;2.10;;;;;;;7.52;71.22;98247.63;10396772;28;20048;-62
2024/02/23 23:25:08;;;;;;;;;;;;;;;7.60;72.25;98276.84;10379741;28;20558;-62
2024/02/23 23:30:11;;;;;;;6.20;2.35;;;;;;;7.60;72.17;98276.84;10407607;28;19920;-63
2024/02/23 23:35:13;;;;;;;5.88;2.05;;;;;;;7.54;71.04;98266.88;10406232;28;20110;-63
2024/02/23 23:40:15;;;;;;;5.78;1.58;;;;;;;7.39;71.06;98280.63;10401381;28;20050;-62
2024/02/23 23:45:18;;;;;;;5.45;2.45;;;;;;;7.35;71.20;98257.28;10399175;28;20049;-63